aviador You're here:

KAIB Decoded Metar

in
Report Time2017-08-19 14:55:00
UTC Time2017-08-19 15:02:15
Flight Rules vfr VFR
WindCalm
Visibility9999 m
Phenomena:N/A
Clouds:N/A
Expected CloudBase > 7,600 ft AGL from Temp-Dew spread
CeilingNone
Temp19°C
Dew Point00°C (28% RH)
AAT17.0°C
QNH1025 hPa
Raw Report
KAIB 191455Z AUTO 00000KT 10SM CLR 19/00 A3026 RMK AO2=

Extra information for KAIB:More info

Social comments